Time;durP1;ratioP1;P1;durP2;ratioP2;P2;SDS_P1;SDS_P2;PMS_P1;PMS_P2;Temp;Humidity;BMP_temperature;BMP_pressure;BME280_temperature;BME280_humidity;BME280_pressure;Samples;Min_cycle;Max_cycle;Signal;HPM_P1;HPM_P2
2022/04/10 00:01:01;;;;;;;;;;;4.10;99.90;;;;;;5065909;28;19925;-74
2022/04/10 00:03:28;;;;;;;;;;;4.10;99.90;;;;;;5071563;28;19970;-76
2022/04/10 00:05:55;;;;;;;;;;;4.20;99.90;;;;;;5069984;28;19924;-75
2022/04/10 00:08:21;;;;;;;;;;;4.20;99.90;;;;;;5072010;28;19931;-76
2022/04/10 00:10:48;;;;;;;;;;;4.20;99.90;;;;;;5072058;28;19964;-75
2022/04/10 00:13:15;;;;;;;;;;;4.20;99.90;;;;;;5069166;28;19928;-76
2022/04/10 00:15:41;;;;;;;;;;;4.10;99.90;;;;;;5070349;28;19925;-76
2022/04/10 00:18:08;;;;;;;;;;;4.10;99.90;;;;;;5070468;28;19932;-76
2022/04/10 00:20:35;;;;;;;;;;;4.10;99.90;;;;;;5068632;28;20007;-76
2022/04/10 00:23:02;;;;;;;;;;;4.10;99.90;;;;;;5071104;28;19931;-76
2022/04/10 00:25:29;;;;;;;;;;;4.00;99.90;;;;;;5071302;28;19970;-76
2022/04/10 00:27:55;;;;;;;;;;;3.90;99.90;;;;;;5064535;28;20434;-76
2022/04/10 00:30:22;;;;;;;;;;;3.90;99.90;;;;;;5070571;28;19982;-76
2022/04/10 00:32:49;;;;;;;;;;;3.80;99.90;;;;;;5062752;28;19925;-76
2022/04/10 00:35:15;;;;;;;;;;;3.80;99.90;;;;;;5064198;28;19935;-76
2022/04/10 00:37:42;;;;;;;;;;;3.80;99.90;;;;;;5055220;28;19928;-78
2022/04/10 00:40:08;;;;;;;;;;;3.70;99.90;;;;;;5061735;28;20298;-76
2022/04/10 00:42:35;;;;;;;;;;;3.70;99.90;;;;;;5068610;28;19925;-76
2022/04/10 00:45:01;;;;;;;;;;;3.70;99.90;;;;;;5064561;28;19948;-76
2022/04/10 00:47:28;;;;;;;;;;;3.70;99.90;;;;;;5067067;28;20288;-76
2022/04/10 00:49:55;;;;;;;;;;;3.70;99.90;;;;;;5071202;28;19970;-78
2022/04/10 00:52:21;;;;;;;;;;;3.70;99.90;;;;;;5068800;28;19924;-76
2022/04/10 00:54:48;;;;;;;;;;;3.70;99.90;;;;;;5065094;28;20014;-76
2022/04/10 00:57:15;;;;;;;;;;;3.70;99.90;;;;;;5069797;28;19924;-76
2022/04/10 00:59:41;;;;;;;;;;;3.80;99.90;;;;;;5066528;28;19924;-75
2022/04/10 01:02:08;;;;;;;;;;;3.80;99.90;;;;;;5070095;28;19931;-75
2022/04/10 01:04:36;;;;;;;;;;;3.80;99.90;;;;;;5071023;28;19931;-75
2022/04/10 01:07:02;;;;;;;;;;;3.90;99.90;;;;;;5064509;28;19924;-76
2022/04/10 01:09:29;;;;;;;;;;;3.80;99.90;;;;;;5065060;28;19925;-74
2022/04/10 01:11:56;;;;;;;;;;;3.80;99.90;;;;;;5068006;28;19955;-78
2022/04/10 01:14:22;;;;;;;;;;;3.80;99.90;;;;;;5071014;28;19925;-76
2022/04/10 01:16:49;;;;;;;;;;;3.80;99.90;;;;;;5064292;28;19932;-76
2022/04/10 01:19:15;;;;;;;;;;;3.70;99.90;;;;;;5070718;28;19928;-76
2022/04/10 01:21:43;;;;;;;;;;;3.70;99.90;;;;;;5058242;28;19925;-75
2022/04/10 01:24:11;;;;;;;;;;;3.70;99.90;;;;;;5068740;28;20011;-76
2022/04/10 01:26:37;;;;;;;;;;;3.60;99.90;;;;;;5070738;28;19928;-76
2022/04/10 01:29:04;;;;;;;;;;;3.60;99.90;;;;;;5064840;28;19930;-76
2022/04/10 01:31:30;;;;;;;;;;;3.50;99.90;;;;;;5070462;28;19931;-76
2022/04/10 01:33:57;;;;;;;;;;;3.40;99.90;;;;;;5070488;28;19928;-79
2022/04/10 01:36:23;;;;;;;;;;;3.30;99.90;;;;;;5065343;28;19972;-76
2022/04/10 01:38:50;;;;;;;;;;;3.20;99.90;;;;;;5054681;28;19932;-76
2022/04/10 01:41:17;;;;;;;;;;;3.20;99.90;;;;;;5054947;28;19929;-76
2022/04/10 01:43:43;;;;;;;;;;;3.20;99.90;;;;;;5065564;28;19925;-75
2022/04/10 01:46:10;;;;;;;;;;;3.20;99.90;;;;;;5068886;28;19925;-76
2022/04/10 01:48:36;;;;;;;;;;;3.20;99.90;;;;;;5067345;28;19925;-75
2022/04/10 01:51:03;;;;;;;;;;;3.10;99.90;;;;;;5065358;28;20368;-76
2022/04/10 01:53:29;;;;;;;;;;;3.10;99.90;;;;;;5068653;28;20697;-75
2022/04/10 01:55:56;;;;;;;;;;;3.20;99.90;;;;;;5073633;28;19972;-74
2022/04/10 01:58:22;;;;;;;;;;;3.20;99.90;;;;;;5067933;28;20079;-75
2022/04/10 02:00:49;;;;;;;;;;;3.30;99.90;;;;;;5068539;28;19924;-76
2022/04/10 02:03:15;;;;;;;;;;;3.40;99.90;;;;;;5073146;28;20268;-77
2022/04/10 02:05:42;;;;;;;;;;;3.40;99.90;;;;;;5067595;28;19929;-78
2022/04/10 02:08:09;;;;;;;;;;;3.40;99.90;;;;;;5073263;28;20387;-77
2022/04/10 02:10:35;;;;;;;;;;;3.30;99.90;;;;;;5072975;28;19959;-76
2022/04/10 02:13:02;;;;;;;;;;;3.40;99.90;;;;;;5073009;28;19940;-79
2022/04/10 02:15:29;;;;;;;;;;;3.40;99.90;;;;;;5074212;28;19931;-76
2022/04/10 02:17:55;;;;;;;;;;;3.40;99.90;;;;;;5074274;28;19925;-76
2022/04/10 02:20:22;;;;;;;;;;;3.30;99.90;;;;;;5069443;28;19925;-77
2022/04/10 02:22:48;;;;;;;;;;;3.40;99.90;;;;;;5065347;28;19932;-77
2022/04/10 02:25:15;;;;;;;;;;;3.40;99.90;;;;;;5073312;28;19929;-76
2022/04/10 02:27:41;;;;;;;;;;;3.40;99.90;;;;;;5068023;28;19924;-77
2022/04/10 02:30:08;;;;;;;;;;;3.40;99.90;;;;;;5073694;28;19925;-77
2022/04/10 02:32:34;;;;;;;;;;;3.50;99.90;;;;;;5061103;28;19932;-76
2022/04/10 02:35:01;;;;;;;;;;;3.50;99.90;;;;;;5073824;28;19925;-76
2022/04/10 02:37:27;;;;;;;;;;;3.50;99.90;;;;;;5073425;28;19928;-77
2022/04/10 02:39:54;;;;;;;;;;;3.60;99.90;;;;;;5073578;28;19932;-76
2022/04/10 02:42:20;;;;;;;;;;;3.60;99.90;;;;;;5060556;28;19925;-76
2022/04/10 02:44:47;;;;;;;;;;;3.60;99.90;;;;;;5073625;28;19945;-77
2022/04/10 02:47:13;;;;;;;;;;;3.60;99.90;;;;;;5072492;28;19925;-78
2022/04/10 02:49:40;;;;;;;;;;;3.50;99.90;;;;;;5098193;28;20011;-77
2022/04/10 02:52:07;;;;;;;;;;;3.60;99.90;;;;;;5070140;28;19924;-79
2022/04/10 02:54:33;;;;;;;;;;;3.50;99.90;;;;;;5068190;28;19979;-77
2022/04/10 02:57:00;;;;;;;;;;;3.50;99.90;;;;;;5062393;28;19932;-77
2022/04/10 02:59:26;;;;;;;;;;;3.50;99.90;;;;;;5073031;28;19925;-77
2022/04/10 03:01:53;;;;;;;;;;;3.50;99.90;;;;;;5072602;28;19925;-77
2022/04/10 03:04:19;;;;;;;;;;;3.50;99.90;;;;;;5071175;28;19929;-76
2022/04/10 03:06:46;;;;;;;;;;;3.60;99.90;;;;;;5071919;28;19940;-77
2022/04/10 03:09:12;;;;;;;;;;;3.70;99.90;;;;;;5072161;28;19924;-77
2022/04/10 03:11:39;;;;;;;;;;;3.90;99.90;;;;;;5073426;28;19932;-76
2022/04/10 03:14:05;;;;;;;;;;;4.00;99.90;;;;;;5072495;28;19924;-78
2022/04/10 03:16:32;;;;;;;;;;;3.90;99.90;;;;;;5064706;28;20342;-76
2022/04/10 03:18:58;;;;;;;;;;;3.90;99.90;;;;;;5069864;28;19924;-76
2022/04/10 03:21:25;;;;;;;;;;;3.80;99.90;;;;;;5064844;28;19929;-77
2022/04/10 03:23:51;;;;;;;;;;;3.90;99.90;;;;;;5072390;28;20398;-77
2022/04/10 03:26:18;;;;;;;;;;;3.80;99.90;;;;;;5071979;28;19935;-76
2022/04/10 03:28:44;;;;;;;;;;;3.70;99.90;;;;;;5073062;28;19924;-77
2022/04/10 03:31:11;;;;;;;;;;;3.70;99.90;;;;;;5069751;28;19940;-77
2022/04/10 03:33:38;;;;;;;;;;;3.70;99.90;;;;;;5069059;28;19936;-75
2022/04/10 03:36:04;;;;;;;;;;;3.70;99.90;;;;;;5069711;28;19925;-75
2022/04/10 03:38:31;;;;;;;;;;;3.60;99.90;;;;;;5069483;28;19925;-75
2022/04/10 03:40:57;;;;;;;;;;;3.70;99.90;;;;;;5072835;28;19924;-75
2022/04/10 03:43:24;;;;;;;;;;;3.70;99.90;;;;;;5070748;28;19925;-75
2022/04/10 03:45:50;;;;;;;;;;;3.70;99.90;;;;;;5065094;28;19931;-75
2022/04/10 03:48:17;;;;;;;;;;;3.50;99.90;;;;;;5058693;28;19947;-76
2022/04/10 03:50:43;;;;;;;;;;;3.50;99.90;;;;;;5072405;28;19925;-77
2022/04/10 03:53:10;;;;;;;;;;;3.40;99.90;;;;;;5071183;28;19930;-78
2022/04/10 03:55:36;;;;;;;;;;;3.40;99.90;;;;;;5072446;28;19930;-75
2022/04/10 03:58:03;;;;;;;;;;;3.40;99.90;;;;;;5072103;28;19924;-76
2022/04/10 04:00:30;;;;;;;;;;;3.30;99.90;;;;;;5067388;28;19932;-76
2022/04/10 04:02:56;;;;;;;;;;;3.40;99.90;;;;;;5063221;28;19928;-76
2022/04/10 04:05:23;;;;;;;;;;;3.40;99.90;;;;;;5070439;28;19931;-75
2022/04/10 04:07:49;;;;;;;;;;;3.40;99.90;;;;;;5054089;28;19925;-76
2022/04/10 04:10:16;;;;;;;;;;;3.40;99.90;;;;;;5067865;28;20038;-76
2022/04/10 04:12:42;;;;;;;;;;;3.30;99.90;;;;;;5072462;28;20375;-77
2022/04/10 04:15:10;;;;;;;;;;;3.30;99.90;;;;;;5068566;28;20368;-76
2022/04/10 04:17:37;;;;;;;;;;;3.30;99.90;;;;;;5070761;28;19925;-76
2022/04/10 04:20:04;;;;;;;;;;;3.40;99.90;;;;;;5072126;28;19947;-76
2022/04/10 04:22:30;;;;;;;;;;;3.40;99.90;;;;;;5064322;28;19925;-76
2022/04/10 04:24:57;;;;;;;;;;;3.30;99.90;;;;;;5065648;28;19932;-76
2022/04/10 04:27:23;;;;;;;;;;;3.30;99.90;;;;;;5070697;28;19931;-76
2022/04/10 04:29:50;;;;;;;;;;;3.40;99.90;;;;;;5071037;28;19932;-76
2022/04/10 04:32:16;;;;;;;;;;;3.30;99.90;;;;;;5057935;28;19984;-76
2022/04/10 04:34:45;;;;;;;;;;;3.40;99.90;;;;;;5069798;28;20221;-76
2022/04/10 04:37:12;;;;;;;;;;;3.40;99.90;;;;;;5070700;28;19925;-76
2022/04/10 04:39:39;;;;;;;;;;;3.40;99.90;;;;;;5063751;28;19932;-76
2022/04/10 04:42:05;;;;;;;;;;;3.50;99.90;;;;;;5071853;28;19967;-75
2022/04/10 04:44:32;;;;;;;;;;;3.50;99.90;;;;;;5070946;28;19982;-75
2022/04/10 04:46:58;;;;;;;;;;;3.40;99.90;;;;;;5064585;28;20307;-76
2022/04/10 04:49:25;;;;;;;;;;;3.40;99.90;;;;;;5063962;28;20379;-76
2022/04/10 04:51:51;;;;;;;;;;;3.30;99.90;;;;;;5065136;28;20272;-76
2022/04/10 04:54:18;;;;;;;;;;;3.30;99.90;;;;;;5070691;28;20402;-76
2022/04/10 04:56:45;;;;;;;;;;;3.30;99.90;;;;;;5070815;28;19931;-76
2022/04/10 04:59:12;;;;;;;;;;;3.30;99.90;;;;;;5068234;28;19925;-76
2022/04/10 05:01:41;;;;;;;;;;;3.40;99.90;;;;;;5070143;28;19932;-76
2022/04/10 05:04:07;;;;;;;;;;;3.40;99.90;;;;;;5064714;28;19932;-75
2022/04/10 05:06:34;;;;;;;;;;;3.40;99.90;;;;;;5065643;28;19928;-76
2022/04/10 05:09:00;;;;;;;;;;;3.40;99.90;;;;;;5070697;28;19924;-75
2022/04/10 05:11:27;;;;;;;;;;;3.40;99.90;;;;;;5071038;28;19932;-76
2022/04/10 05:13:53;;;;;;;;;;;3.40;99.90;;;;;;5070418;28;19931;-76
2022/04/10 05:16:21;;;;;;;;;;;3.50;99.90;;;;;;5070098;28;19933;-76
2022/04/10 05:18:48;;;;;;;;;;;3.40;99.90;;;;;;5059359;28;19947;-76
2022/04/10 05:21:14;;;;;;;;;;;3.30;99.90;;;;;;5071106;28;19972;-77
2022/04/10 05:23:41;;;;;;;;;;;3.20;99.90;;;;;;5061202;28;19946;-76
2022/04/10 05:26:07;;;;;;;;;;;3.20;99.90;;;;;;5066664;28;19931;-75
2022/04/10 05:28:34;;;;;;;;;;;3.30;99.90;;;;;;5074686;28;19931;-76
2022/04/10 05:31:01;;;;;;;;;;;3.30;99.90;;;;;;5071143;28;19932;-76
2022/04/10 05:33:28;;;;;;;;;;;3.40;99.90;;;;;;5072388;28;19925;-76
2022/04/10 05:35:55;;;;;;;;;;;3.50;99.90;;;;;;5067215;28;19932;-76
2022/04/10 05:38:22;;;;;;;;;;;3.60;99.90;;;;;;5073999;28;19932;-78
2022/04/10 05:40:52;;;;;;;;;;;3.80;99.90;;;;;;5071985;28;19924;-75
2022/04/10 05:43:19;;;;;;;;;;;3.90;99.90;;;;;;5061574;28;19935;-77
2022/04/10 05:45:45;;;;;;;;;;;4.00;99.90;;;;;;5067530;28;20371;-76
2022/04/10 05:48:12;;;;;;;;;;;4.20;99.90;;;;;;5082788;28;20303;-76
2022/04/10 05:50:38;;;;;;;;;;;4.30;99.90;;;;;;5086568;28;19931;-76
2022/04/10 05:53:05;;;;;;;;;;;4.40;99.90;;;;;;5074437;28;19924;-75
2022/04/10 05:55:32;;;;;;;;;;;4.40;99.90;;;;;;5076056;28;19927;-76
2022/04/10 05:57:58;;;;;;;;;;;4.30;99.90;;;;;;5082769;28;19939;-76
2022/04/10 06:00:25;;;;;;;;;;;4.30;99.90;;;;;;5078824;28;19924;-76
2022/04/10 06:02:51;;;;;;;;;;;4.20;99.90;;;;;;5085689;28;19925;-76
2022/04/10 06:05:18;;;;;;;;;;;4.30;99.90;;;;;;5065579;28;19932;-77
2022/04/10 06:07:44;;;;;;;;;;;4.40;99.90;;;;;;5077594;28;20383;-76
2022/04/10 06:10:11;;;;;;;;;;;4.50;99.90;;;;;;5082176;28;19929;-76
2022/04/10 06:12:37;;;;;;;;;;;4.70;99.90;;;;;;5082961;28;19931;-76
2022/04/10 06:15:04;;;;;;;;;;;4.80;99.90;;;;;;5077984;28;20265;-76
2022/04/10 06:17:31;;;;;;;;;;;4.90;99.90;;;;;;5069004;28;19928;-76
2022/04/10 06:19:57;;;;;;;;;;;4.90;99.90;;;;;;5080168;28;20355;-76
2022/04/10 06:22:24;;;;;;;;;;;4.80;99.90;;;;;;5077691;28;19974;-78
2022/04/10 06:24:50;;;;;;;;;;;4.80;99.90;;;;;;5075853;28;19932;-76
2022/04/10 06:27:17;;;;;;;;;;;4.70;99.90;;;;;;5079974;28;19928;-76
2022/04/10 06:29:44;;;;;;;;;;;4.60;99.90;;;;;;5078848;28;20057;-75
2022/04/10 06:32:10;;;;;;;;;;;4.60;99.90;;;;;;5075404;28;19932;-76
2022/04/10 06:34:37;;;;;;;;;;;4.60;99.90;;;;;;5081683;28;19925;-76
2022/04/10 06:37:03;;;;;;;;;;;4.60;99.90;;;;;;5079246;28;20011;-76
2022/04/10 06:39:30;;;;;;;;;;;4.60;99.90;;;;;;5107981;27;19932;-77
2022/04/10 06:41:56;;;;;;;;;;;4.60;99.90;;;;;;5072100;28;19924;-76
2022/04/10 06:44:23;;;;;;;;;;;4.80;99.90;;;;;;5081302;28;20305;-76
2022/04/10 06:46:50;;;;;;;;;;;5.00;99.90;;;;;;5077599;28;19935;-76
2022/04/10 06:49:17;;;;;;;;;;;4.90;99.90;;;;;;5071815;28;20443;-76
2022/04/10 06:51:43;;;;;;;;;;;5.00;99.90;;;;;;5083026;28;19925;-75
2022/04/10 06:54:10;;;;;;;;;;;5.00;99.90;;;;;;5076061;28;19939;-76
2022/04/10 06:56:37;;;;;;;;;;;4.90;99.90;;;;;;5070097;28;19931;-76
2022/04/10 06:59:03;;;;;;;;;;;4.70;99.90;;;;;;5080326;28;20011;-76
2022/04/10 07:01:30;;;;;;;;;;;4.60;99.90;;;;;;5081450;28;21381;-76
2022/04/10 07:03:58;;;;;;;;;;;4.60;99.90;;;;;;5081702;28;19931;-76
2022/04/10 07:06:24;;;;;;;;;;;4.50;99.90;;;;;;5077622;28;19924;-76
2022/04/10 07:08:51;;;;;;;;;;;4.40;99.90;;;;;;5075341;28;20027;-76
2022/04/10 07:11:17;;;;;;;;;;;4.60;99.90;;;;;;5054941;28;19928;-76
2022/04/10 07:13:44;;;;;;;;;;;4.70;99.90;;;;;;5071984;28;20648;-76
2022/04/10 07:16:11;;;;;;;;;;;5.00;99.90;;;;;;5058850;28;19939;-76
2022/04/10 07:18:38;;;;;;;;;;;5.10;99.90;;;;;;5068311;28;20027;-76
2022/04/10 07:21:04;;;;;;;;;;;5.40;99.90;;;;;;5064107;28;19928;-76
2022/04/10 07:23:42;;;;;;;;;;;5.60;99.90;;;;;;5058894;28;19928;-78
2022/04/10 07:26:09;;;;;;;;;;;5.70;99.90;;;;;;5068933;28;19928;-76
2022/04/10 07:28:37;;;;;;;;;;;5.90;99.90;;;;;;5067364;28;19978;-76
2022/04/10 07:31:04;;;;;;;;;;;6.00;99.90;;;;;;5068964;28;19925;-77
2022/04/10 07:33:30;;;;;;;;;;;6.20;99.90;;;;;;5060536;28;19976;-79
2022/04/10 07:35:57;;;;;;;;;;;6.40;99.90;;;;;;5069208;28;20652;-76
2022/04/10 07:38:24;;;;;;;;;;;6.50;99.90;;;;;;5056194;28;19991;-77
2022/04/10 07:40:50;;;;;;;;;;;6.60;99.90;;;;;;5080068;28;19962;-77
2022/04/10 07:43:17;;;;;;;;;;;6.80;99.90;;;;;;5068475;28;19928;-77
2022/04/10 07:48:27;;;;;;;;;;;6.90;99.90;;;;;;5065052;28;19928;-77
2022/04/10 07:50:55;;;;;;;;;;;7.00;99.90;;;;;;5060812;28;20379;-77
2022/04/10 07:53:22;;;;;;;;;;;7.10;99.90;;;;;;5066283;28;19925;-77
2022/04/10 07:55:48;;;;;;;;;;;6.90;99.90;;;;;;5067070;28;19928;-77
2022/04/10 07:58:15;;;;;;;;;;;6.60;99.90;;;;;;5066443;28;20331;-76
2022/04/10 08:00:41;;;;;;;;;;;6.50;99.90;;;;;;5064390;28;19936;-76
2022/04/10 08:03:08;;;;;;;;;;;6.30;99.90;;;;;;5070328;28;19929;-77
2022/04/10 08:05:35;;;;;;;;;;;6.10;99.90;;;;;;5067778;28;19946;-78
2022/04/10 08:08:02;;;;;;;;;;;6.00;99.90;;;;;;5069693;28;19932;-77
2022/04/10 08:10:29;;;;;;;;;;;6.20;99.90;;;;;;5067066;28;19932;-77
2022/04/10 08:12:55;;;;;;;;;;;6.40;99.90;;;;;;5066982;28;19931;-77
2022/04/10 08:15:22;;;;;;;;;;;6.60;99.90;;;;;;5070546;28;19924;-77
2022/04/10 08:17:49;;;;;;;;;;;6.70;99.90;;;;;;5068177;28;19934;-77
2022/04/10 08:20:16;;;;;;;;;;;6.80;99.90;;;;;;5065223;28;20039;-77
2022/04/10 08:22:42;;;;;;;;;;;6.80;99.90;;;;;;5066752;28;19934;-77
2022/04/10 08:25:09;;;;;;;;;;;6.90;99.90;;;;;;5068712;28;19935;-77
2022/04/10 08:27:36;;;;;;;;;;;7.00;99.90;;;;;;5066558;28;19939;-79
2022/04/10 08:30:03;;;;;;;;;;;7.10;99.90;;;;;;5059448;28;19928;-77
2022/04/10 08:32:29;;;;;;;;;;;7.00;99.90;;;;;;5067507;28;19997;-77
2022/04/10 08:34:56;;;;;;;;;;;7.00;99.90;;;;;;5066069;28;20536;-77
2022/04/10 08:37:22;;;;;;;;;;;7.00;99.90;;;;;;5061733;28;20372;-77
2022/04/10 08:39:49;;;;;;;;;;;7.00;99.90;;;;;;5065247;28;20470;-77
2022/04/10 08:42:15;;;;;;;;;;;7.10;99.90;;;;;;5068048;28;20435;-77
2022/04/10 08:44:42;;;;;;;;;;;7.30;99.90;;;;;;5065367;28;19932;-77
2022/04/10 08:47:09;;;;;;;;;;;7.40;99.90;;;;;;5063588;28;19929;-77
2022/04/10 08:49:35;;;;;;;;;;;7.50;99.90;;;;;;5067084;28;19935;-77
2022/04/10 08:52:02;;;;;;;;;;;7.50;99.90;;;;;;5059808;28;19931;-77
2022/04/10 08:54:28;;;;;;;;;;;7.70;99.90;;;;;;5068401;28;19932;-77
2022/04/10 08:56:57;;;;;;;;;;;7.80;99.90;;;;;;5066211;28;19928;-77
2022/04/10 08:59:23;;;;;;;;;;;7.80;99.90;;;;;;5060963;28;20007;-78
2022/04/10 09:01:50;;;;;;;;;;;7.80;99.90;;;;;;5067422;28;19928;-77
2022/04/10 09:04:16;;;;;;;;;;;7.70;99.90;;;;;;5074219;28;19935;-77
2022/04/10 09:06:43;;;;;;;;;;;7.90;99.90;;;;;;5071228;28;20032;-77
2022/04/10 09:09:09;;;;;;;;;;;7.90;99.90;;;;;;5067328;28;19933;-77
2022/04/10 09:11:36;;;;;;;;;;;8.00;99.90;;;;;;5067460;28;19931;-77
2022/04/10 09:14:03;;;;;;;;;;;8.00;99.90;;;;;;5079522;28;20015;-77
2022/04/10 09:16:29;;;;;;;;;;;8.20;99.90;;;;;;5067688;28;19994;-77
2022/04/10 09:18:56;;;;;;;;;;;8.10;99.90;;;;;;5068749;28;20391;-79
2022/04/10 09:21:22;;;;;;;;;;;8.20;99.90;;;;;;5068808;28;19928;-78
2022/04/10 09:23:49;;;;;;;;;;;8.30;99.90;;;;;;5066208;28;19929;-77
2022/04/10 09:26:15;;;;;;;;;;;8.30;99.90;;;;;;5063199;28;19928;-78
2022/04/10 09:28:42;;;;;;;;;;;8.20;99.90;;;;;;5070545;28;19940;-79
2022/04/10 09:31:09;;;;;;;;;;;8.20;99.90;;;;;;5070185;28;19929;-77
2022/04/10 09:33:35;;;;;;;;;;;8.20;99.90;;;;;;5069967;28;20398;-78
2022/04/10 09:36:02;;;;;;;;;;;8.40;99.90;;;;;;5070218;28;19932;-78
2022/04/10 09:38:28;;;;;;;;;;;8.40;99.90;;;;;;5071362;28;19928;-77
2022/04/10 09:40:55;;;;;;;;;;;8.20;99.90;;;;;;5069021;28;19929;-77
2022/04/10 09:43:22;;;;;;;;;;;8.20;99.90;;;;;;5078969;28;19936;-78
2022/04/10 09:45:48;;;;;;;;;;;8.40;99.90;;;;;;5070337;28;19929;-77
2022/04/10 09:48:15;;;;;;;;;;;8.50;99.90;;;;;;5068869;28;19972;-77
2022/04/10 09:50:41;;;;;;;;;;;8.70;99.90;;;;;;5070047;28;19932;-78
2022/04/10 09:53:08;;;;;;;;;;;8.80;99.90;;;;;;5068948;28;19928;-77
2022/04/10 09:55:35;;;;;;;;;;;8.70;99.90;;;;;;5063076;28;19981;-78
2022/04/10 09:58:01;;;;;;;;;;;8.70;99.90;;;;;;5070241;28;19932;-77
2022/04/10 10:00:28;;;;;;;;;;;8.80;99.90;;;;;;5070433;28;19928;-77
2022/04/10 10:02:54;;;;;;;;;;;8.90;99.80;;;;;;5067365;28;19929;-78
2022/04/10 10:05:21;;;;;;;;;;;8.90;99.90;;;;;;5064056;28;19924;-78
2022/04/10 10:07:48;;;;;;;;;;;8.80;99.90;;;;;;5064073;28;19925;-78
2022/04/10 10:10:17;;;;;;;;;;;9.00;99.90;;;;;;5068247;28;20320;-79
2022/04/10 10:12:43;;;;;;;;;;;8.90;99.90;;;;;;5061667;28;19929;-79
2022/04/10 10:15:10;;;;;;;;;;;8.80;99.90;;;;;;5064486;28;20278;-78
2022/04/10 10:17:36;;;;;;;;;;;8.80;99.80;;;;;;5068506;28;19925;-78
2022/04/10 10:20:03;;;;;;;;;;;8.70;99.70;;;;;;5068911;28;19925;-77
2022/04/10 10:22:30;;;;;;;;;;;8.60;99.90;;;;;;5059118;28;20035;-78
2022/04/10 10:24:56;;;;;;;;;;;8.80;99.90;;;;;;5068419;28;19929;-78
2022/04/10 10:27:23;;;;;;;;;;;9.00;99.90;;;;;;5067590;28;19928;-78
2022/04/10 10:29:49;;;;;;;;;;;9.10;99.90;;;;;;5069448;28;19936;-78
2022/04/10 10:32:16;;;;;;;;;;;9.30;99.90;;;;;;5063147;28;19964;-78
2022/04/10 10:34:43;;;;;;;;;;;9.10;99.90;;;;;;5069720;28;19924;-78
2022/04/10 10:37:10;;;;;;;;;;;8.90;99.90;;;;;;5068424;28;19955;-78
2022/04/10 10:39:36;;;;;;;;;;;8.90;99.90;;;;;;5081189;28;19929;-78
2022/04/10 10:42:03;;;;;;;;;;;8.90;99.90;;;;;;5079687;28;19924;-78
2022/04/10 10:44:30;;;;;;;;;;;9.00;99.30;;;;;;5069546;28;19982;-78
2022/04/10 10:46:56;;;;;;;;;;;9.00;99.10;;;;;;5063843;28;19935;-80
2022/04/10 10:49:23;;;;;;;;;;;8.50;99.80;;;;;;5061846;28;19972;-78
2022/04/10 10:51:49;;;;;;;;;;;8.50;99.90;;;;;;5069060;28;20049;-80
2022/04/10 10:54:18;;;;;;;;;;;8.60;99.90;;;;;;5066668;28;19934;-79
2022/04/10 10:56:46;;;;;;;;;;;8.70;99.50;;;;;;5063264;28;19929;-78
2022/04/10 10:59:13;;;;;;;;;;;8.80;99.50;;;;;;5068045;28;20023;-79
2022/04/10 11:01:39;;;;;;;;;;;8.80;98.20;;;;;;5070159;28;19932;-78
2022/04/10 11:04:06;;;;;;;;;;;8.80;98.70;;;;;;5064516;28;20459;-78
2022/04/10 11:06:33;;;;;;;;;;;9.10;98.20;;;;;;5062220;28;19932;-79
2022/04/10 11:09:00;;;;;;;;;;;8.70;98.50;;;;;;5063789;28;19935;-78
2022/04/10 11:11:26;;;;;;;;;;;9.10;98.80;;;;;;5062710;28;19924;-78
2022/04/10 11:13:53;;;;;;;;;;;9.00;99.70;;;;;;5058423;28;19928;-78
2022/04/10 11:16:19;;;;;;;;;;;9.10;99.30;;;;;;5062348;28;19935;-78
2022/04/10 11:18:46;;;;;;;;;;;8.90;98.50;;;;;;5068437;28;19935;-79
2022/04/10 11:21:14;;;;;;;;;;;8.80;98.40;;;;;;5068351;28;20453;-78
2022/04/10 11:23:41;;;;;;;;;;;9.00;97.40;;;;;;5081416;28;19971;-78
2022/04/10 11:26:08;;;;;;;;;;;8.70;98.70;;;;;;5071192;28;19928;-78
2022/04/10 11:28:35;;;;;;;;;;;8.80;96.80;;;;;;5074734;28;19928;-78
2022/04/10 11:31:01;;;;;;;;;;;8.60;99.10;;;;;;5067575;28;19972;-78
2022/04/10 11:33:28;;;;;;;;;;;8.80;99.00;;;;;;5066272;28;19929;-78
2022/04/10 11:35:54;;;;;;;;;;;9.00;98.40;;;;;;5061621;28;19935;-79
2022/04/10 11:38:21;;;;;;;;;;;9.10;98.80;;;;;;5065894;28;19929;-78
2022/04/10 11:40:48;;;;;;;;;;;8.80;99.40;;;;;;5069809;28;20665;-79
2022/04/10 11:43:15;;;;;;;;;;;9.00;98.80;;;;;;5061000;28;19925;-78
2022/04/10 11:45:42;;;;;;;;;;;9.20;98.50;;;;;;5059862;28;19929;-78
2022/04/10 11:48:08;;;;;;;;;;;9.40;98.70;;;;;;5072572;28;19928;-78
2022/04/10 11:50:35;;;;;;;;;;;9.40;99.30;;;;;;5072255;28;19929;-78
2022/04/10 11:53:02;;;;;;;;;;;9.40;97.90;;;;;;5074063;28;19924;-78
2022/04/10 11:55:29;;;;;;;;;;;9.30;99.60;;;;;;5061770;28;19928;-78
2022/04/10 11:57:56;;;;;;;;;;;9.20;99.70;;;;;;5058483;28;20037;-78
2022/04/10 12:00:22;;;;;;;;;;;9.10;99.50;;;;;;5075669;28;20137;-78
2022/04/10 12:02:52;;;;;;;;;;;9.60;99.50;;;;;;5067320;28;20276;-78
2022/04/10 12:05:19;;;;;;;;;;;9.50;99.70;;;;;;5062329;28;19932;-77
2022/04/10 12:07:45;;;;;;;;;;;9.90;99.10;;;;;;5070141;28;20287;-78
2022/04/10 12:10:12;;;;;;;;;;;9.90;99.40;;;;;;5065413;28;19928;-80
2022/04/10 12:12:39;;;;;;;;;;;9.70;99.40;;;;;;5067296;28;19928;-78
2022/04/10 12:15:05;;;;;;;;;;;9.70;98.00;;;;;;5072095;28;19935;-78
2022/04/10 12:17:32;;;;;;;;;;;9.90;97.20;;;;;;5069498;28;19928;-77
2022/04/10 12:19:58;;;;;;;;;;;9.90;98.30;;;;;;5063662;28;19959;-78
2022/04/10 12:22:25;;;;;;;;;;;9.80;99.20;;;;;;5065333;28;19983;-78
2022/04/10 12:24:52;;;;;;;;;;;9.60;98.70;;;;;;5068183;28;19935;-78
2022/04/10 12:27:18;;;;;;;;;;;9.50;98.20;;;;;;5066062;28;20328;-78
2022/04/10 12:29:45;;;;;;;;;;;9.30;98.10;;;;;;5066025;28;20041;-78
2022/04/10 12:32:11;;;;;;;;;;;9.30;97.60;;;;;;5061548;28;19929;-78
2022/04/10 12:34:38;;;;;;;;;;;9.30;98.60;;;;;;5063103;28;19924;-78
2022/04/10 12:37:04;;;;;;;;;;;9.40;98.70;;;;;;5073647;28;19928;-79
2022/04/10 12:39:31;;;;;;;;;;;9.30;98.50;;;;;;5069821;28;19928;-78
2022/04/10 12:41:58;;;;;;;;;;;9.10;99.60;;;;;;5059956;28;20018;-80
2022/04/10 12:44:24;;;;;;;;;;;9.00;99.70;;;;;;5065821;28;20023;-78
2022/04/10 12:46:51;;;;;;;;;;;9.10;99.90;;;;;;5095284;28;19924;-78
2022/04/10 12:49:17;;;;;;;;;;;9.40;99.90;;;;;;5066292;28;20008;-78
2022/04/10 12:51:44;;;;;;;;;;;9.50;98.30;;;;;;5072218;28;19935;-78
2022/04/10 12:54:11;;;;;;;;;;;9.70;98.00;;;;;;5071856;28;20051;-78
2022/04/10 12:56:37;;;;;;;;;;;9.80;98.80;;;;;;5062619;28;19932;-78
2022/04/10 12:59:04;;;;;;;;;;;9.90;97.40;;;;;;5072074;28;19940;-78
2022/04/10 13:01:30;;;;;;;;;;;10.00;97.50;;;;;;5066272;28;19928;-77
2022/04/10 13:03:58;;;;;;;;;;;10.00;97.90;;;;;;5066578;28;19932;-80
2022/04/10 13:06:27;;;;;;;;;;;9.90;96.90;;;;;;5067764;28;20349;-78
2022/04/10 13:08:53;;;;;;;;;;;10.00;95.90;;;;;;5072249;28;19925;-78
2022/04/10 13:11:20;;;;;;;;;;;10.00;97.10;;;;;;5070246;28;19929;-78
2022/04/10 13:13:46;;;;;;;;;;;10.00;97.30;;;;;;5062089;28;19929;-78
2022/04/10 13:16:14;;;;;;;;;;;10.10;97.20;;;;;;5062861;28;20007;-78
2022/04/10 13:18:40;;;;;;;;;;;9.70;97.20;;;;;;5065147;28;19928;-76
2022/04/10 13:21:07;;;;;;;;;;;9.50;98.20;;;;;;5065129;28;19924;-77
2022/04/10 13:23:33;;;;;;;;;;;9.70;98.00;;;;;;5068967;28;19929;-77
2022/04/10 13:26:00;;;;;;;;;;;9.70;99.30;;;;;;5067169;28;19935;-78
2022/04/10 13:28:26;;;;;;;;;;;10.00;98.60;;;;;;5067832;28;20380;-78
2022/04/10 13:30:53;;;;;;;;;;;9.90;97.90;;;;;;5066791;28;19928;-77
2022/04/10 13:33:20;;;;;;;;;;;10.00;97.30;;;;;;5062488;28;20502;-78
2022/04/10 13:35:47;;;;;;;;;;;9.90;97.50;;;;;;5058298;28;19978;-77
2022/04/10 13:38:13;;;;;;;;;;;10.10;97.20;;;;;;5058228;28;19929;-79
2022/04/10 13:40:40;;;;;;;;;;;9.90;97.40;;;;;;5068591;28;20011;-78
2022/04/10 13:43:07;;;;;;;;;;;9.80;98.00;;;;;;5061113;28;19932;-78
2022/04/10 13:45:33;;;;;;;;;;;9.80;97.90;;;;;;5062970;28;19932;-78
2022/04/10 13:48:00;;;;;;;;;;;9.80;98.30;;;;;;5073930;28;19924;-78
2022/04/10 13:50:26;;;;;;;;;;;10.10;96.30;;;;;;5072403;28;19928;-78
2022/04/10 13:52:53;;;;;;;;;;;10.00;95.80;;;;;;5069358;28;19928;-79
2022/04/10 13:55:19;;;;;;;;;;;9.90;96.90;;;;;;5064843;28;19935;-78
2022/04/10 13:57:46;;;;;;;;;;;10.00;97.30;;;;;;5075234;28;19929;-78
2022/04/10 14:00:13;;;;;;;;;;;10.00;98.30;;;;;;5063613;28;20355;-78
2022/04/10 14:02:39;;;;;;;;;;;10.00;98.30;;;;;;5069637;28;19925;-78
2022/04/10 14:05:06;;;;;;;;;;;10.10;98.50;;;;;;5069299;28;19928;-78
2022/04/10 14:07:33;;;;;;;;;;;9.80;98.60;;;;;;5069855;28;20383;-78
2022/04/10 14:09:59;;;;;;;;;;;9.80;98.50;;;;;;5075267;28;19980;-77
2022/04/10 14:12:28;;;;;;;;;;;10.10;99.10;;;;;;5072286;28;20034;-80
2022/04/10 14:14:54;;;;;;;;;;;10.20;98.40;;;;;;5073101;28;19925;-79
2022/04/10 14:17:21;;;;;;;;;;;10.00;98.60;;;;;;5060445;28;20928;-79
2022/04/10 14:19:47;;;;;;;;;;;9.90;98.60;;;;;;5078698;28;19928;-80
2022/04/10 14:22:14;;;;;;;;;;;10.00;98.80;;;;;;5070811;28;19929;-79
2022/04/10 14:24:41;;;;;;;;;;;10.10;99.40;;;;;;5065632;28;19942;-79
2022/04/10 14:27:07;;;;;;;;;;;10.00;99.10;;;;;;5078021;28;19939;-82